sensor_id;sensor_type;location;lat;lon;timestamp;P1;durP1;ratioP1;P2;durP2;ratioP2
67979;SDS011;54760;47.490;19.030;2023-04-27T00:00:47;8.20;;;1.95;;
67979;SDS011;54760;47.490;19.030;2023-04-27T00:03:13;5.10;;;1.85;;
67979;SDS011;54760;47.490;19.030;2023-04-27T00:05:38;4.60;;;1.67;;
67979;SDS011;54760;47.490;19.030;2023-04-27T00:08:04;3.35;;;1.70;;
67979;SDS011;54760;47.490;19.030;2023-04-27T00:10:31;2.92;;;1.58;;
67979;SDS011;54760;47.490;19.030;2023-04-27T00:12:56;4.00;;;1.87;;
67979;SDS011;54760;47.490;19.030;2023-04-27T00:15:22;3.87;;;1.70;;
67979;SDS011;54760;47.490;19.030;2023-04-27T00:17:47;3.42;;;1.67;;
67979;SDS011;54760;47.490;19.030;2023-04-27T00:20:13;2.97;;;1.65;;
67979;SDS011;54760;47.490;19.030;2023-04-27T00:22:38;2.80;;;1.80;;
67979;SDS011;54760;47.490;19.030;2023-04-27T00:25:05;2.83;;;1.50;;
67979;SDS011;54760;47.490;19.030;2023-04-27T00:27:30;3.87;;;1.65;;
67979;SDS011;54760;47.490;19.030;2023-04-27T00:29:56;4.87;;;1.52;;
67979;SDS011;54760;47.490;19.030;2023-04-27T00:32:21;2.35;;;1.48;;
67979;SDS011;54760;47.490;19.030;2023-04-27T00:34:46;3.62;;;1.65;;
67979;SDS011;54760;47.490;19.030;2023-04-27T00:37:12;4.65;;;1.70;;
67979;SDS011;54760;47.490;19.030;2023-04-27T00:39:37;3.85;;;1.70;;
67979;SDS011;54760;47.490;19.030;2023-04-27T00:42:03;3.10;;;1.60;;
67979;SDS011;54760;47.490;19.030;2023-04-27T00:44:28;4.62;;;1.80;;
67979;SDS011;54760;47.490;19.030;2023-04-27T00:46:54;2.83;;;1.62;;
67979;SDS011;54760;47.490;19.030;2023-04-27T00:49:20;4.15;;;1.58;;
67979;SDS011;54760;47.490;19.030;2023-04-27T00:51:46;5.87;;;1.73;;
67979;SDS011;54760;47.490;19.030;2023-04-27T00:54:14;3.75;;;1.77;;
67979;SDS011;54760;47.490;19.030;2023-04-27T00:56:42;4.12;;;1.70;;
67979;SDS011;54760;47.490;19.030;2023-04-27T00:59:08;3.33;;;1.70;;
67979;SDS011;54760;47.490;19.030;2023-04-27T01:01:33;4.57;;;2.20;;
67979;SDS011;54760;47.490;19.030;2023-04-27T01:03:59;4.75;;;1.95;;
67979;SDS011;54760;47.490;19.030;2023-04-27T01:06:24;2.47;;;1.70;;
67979;SDS011;54760;47.490;19.030;2023-04-27T01:08:49;4.85;;;1.83;;
67979;SDS011;54760;47.490;19.030;2023-04-27T01:11:15;4.72;;;1.70;;
67979;SDS011;54760;47.490;19.030;2023-04-27T01:13:41;4.30;;;1.90;;
67979;SDS011;54760;47.490;19.030;2023-04-27T01:16:06;5.57;;;1.92;;
67979;SDS011;54760;47.490;19.030;2023-04-27T01:18:32;4.78;;;1.87;;
67979;SDS011;54760;47.490;19.030;2023-04-27T01:20:57;3.28;;;1.90;;
67979;SDS011;54760;47.490;19.030;2023-04-27T01:23:24;3.67;;;1.87;;
67979;SDS011;54760;47.490;19.030;2023-04-27T01:25:49;7.35;;;2.00;;
67979;SDS011;54760;47.490;19.030;2023-04-27T01:28:15;3.55;;;2.00;;
67979;SDS011;54760;47.490;19.030;2023-04-27T01:30:40;3.58;;;1.83;;
67979;SDS011;54760;47.490;19.030;2023-04-27T01:33:06;3.50;;;1.60;;
67979;SDS011;54760;47.490;19.030;2023-04-27T01:35:31;3.65;;;1.62;;
67979;SDS011;54760;47.490;19.030;2023-04-27T01:37:57;4.07;;;1.80;;
67979;SDS011;54760;47.490;19.030;2023-04-27T01:40:22;4.12;;;1.62;;
67979;SDS011;54760;47.490;19.030;2023-04-27T01:42:47;5.05;;;1.60;;
67979;SDS011;54760;47.490;19.030;2023-04-27T01:45:13;3.33;;;1.80;;
67979;SDS011;54760;47.490;19.030;2023-04-27T01:47:38;3.03;;;1.90;;
67979;SDS011;54760;47.490;19.030;2023-04-27T01:50:04;3.35;;;1.83;;
67979;SDS011;54760;47.490;19.030;2023-04-27T01:52:30;4.43;;;1.95;;
67979;SDS011;54760;47.490;19.030;2023-04-27T01:54:56;4.15;;;1.80;;
67979;SDS011;54760;47.490;19.030;2023-04-27T01:57:21;5.03;;;2.20;;
67979;SDS011;54760;47.490;19.030;2023-04-27T01:59:46;4.22;;;2.08;;
67979;SDS011;54760;47.490;19.030;2023-04-27T02:02:12;3.22;;;1.95;;
67979;SDS011;54760;47.490;19.030;2023-04-27T02:04:37;3.10;;;1.77;;
67979;SDS011;54760;47.490;19.030;2023-04-27T02:07:03;5.37;;;1.80;;
67979;SDS011;54760;47.490;19.030;2023-04-27T02:09:28;4.37;;;2.10;;
67979;SDS011;54760;47.490;19.030;2023-04-27T02:11:53;4.10;;;1.92;;
67979;SDS011;54760;47.490;19.030;2023-04-27T02:14:19;4.28;;;1.90;;
67979;SDS011;54760;47.490;19.030;2023-04-27T02:16:44;3.67;;;2.12;;
67979;SDS011;54760;47.490;19.030;2023-04-27T02:19:10;5.07;;;2.05;;
67979;SDS011;54760;47.490;19.030;2023-04-27T02:21:35;4.03;;;1.80;;
67979;SDS011;54760;47.490;19.030;2023-04-27T02:24:01;2.58;;;1.70;;
67979;SDS011;54760;47.490;19.030;2023-04-27T02:26:26;5.10;;;2.03;;
67979;SDS011;54760;47.490;19.030;2023-04-27T02:28:54;5.62;;;1.80;;
67979;SDS011;54760;47.490;19.030;2023-04-27T02:31:23;4.68;;;1.98;;
67979;SDS011;54760;47.490;19.030;2023-04-27T02:33:49;3.05;;;1.65;;
67979;SDS011;54760;47.490;19.030;2023-04-27T02:36:14;3.97;;;1.98;;
67979;SDS011;54760;47.490;19.030;2023-04-27T02:38:40;3.53;;;1.73;;
67979;SDS011;54760;47.490;19.030;2023-04-27T02:41:05;3.25;;;1.70;;
67979;SDS011;54760;47.490;19.030;2023-04-27T02:43:30;3.12;;;1.80;;
67979;SDS011;54760;47.490;19.030;2023-04-27T02:45:56;3.95;;;2.00;;
67979;SDS011;54760;47.490;19.030;2023-04-27T02:48:21;4.80;;;1.95;;
67979;SDS011;54760;47.490;19.030;2023-04-27T02:50:47;3.03;;;1.83;;
67979;SDS011;54760;47.490;19.030;2023-04-27T02:53:12;5.53;;;2.03;;
67979;SDS011;54760;47.490;19.030;2023-04-27T02:55:38;2.85;;;1.83;;
67979;SDS011;54760;47.490;19.030;2023-04-27T02:58:12;5.37;;;1.80;;
67979;SDS011;54760;47.490;19.030;2023-04-27T03:00:37;4.15;;;2.00;;
67979;SDS011;54760;47.490;19.030;2023-04-27T03:03:05;4.60;;;2.37;;
67979;SDS011;54760;47.490;19.030;2023-04-27T03:05:31;6.75;;;2.20;;
67979;SDS011;54760;47.490;19.030;2023-04-27T03:07:57;5.70;;;2.70;;
67979;SDS011;54760;47.490;19.030;2023-04-27T03:10:22;5.28;;;2.40;;
67979;SDS011;54760;47.490;19.030;2023-04-27T03:12:47;6.45;;;2.22;;
67979;SDS011;54760;47.490;19.030;2023-04-27T03:15:13;4.37;;;2.20;;
67979;SDS011;54760;47.490;19.030;2023-04-27T03:17:38;4.53;;;1.90;;
67979;SDS011;54760;47.490;19.030;2023-04-27T03:20:03;4.43;;;2.20;;
67979;SDS011;54760;47.490;19.030;2023-04-27T03:22:33;7.90;;;2.45;;
67979;SDS011;54760;47.490;19.030;2023-04-27T03:24:59;3.70;;;2.00;;
67979;SDS011;54760;47.490;19.030;2023-04-27T03:27:24;3.95;;;2.30;;
67979;SDS011;54760;47.490;19.030;2023-04-27T03:29:50;7.15;;;2.17;;
67979;SDS011;54760;47.490;19.030;2023-04-27T03:32:17;3.47;;;2.00;;
67979;SDS011;54760;47.490;19.030;2023-04-27T03:34:43;5.18;;;2.40;;
67979;SDS011;54760;47.490;19.030;2023-04-27T03:37:08;4.87;;;2.22;;
67979;SDS011;54760;47.490;19.030;2023-04-27T03:39:34;3.17;;;2.00;;
67979;SDS011;54760;47.490;19.030;2023-04-27T03:41:59;7.50;;;2.45;;
67979;SDS011;54760;47.490;19.030;2023-04-27T03:44:26;7.28;;;2.30;;
67979;SDS011;54760;47.490;19.030;2023-04-27T03:46:51;4.03;;;2.35;;
67979;SDS011;54760;47.490;19.030;2023-04-27T03:49:17;5.25;;;2.25;;
67979;SDS011;54760;47.490;19.030;2023-04-27T03:51:42;5.55;;;2.20;;
67979;SDS011;54760;47.490;19.030;2023-04-27T03:54:08;5.40;;;2.20;;
67979;SDS011;54760;47.490;19.030;2023-04-27T03:56:34;4.43;;;2.28;;
67979;SDS011;54760;47.490;19.030;2023-04-27T03:58:59;9.38;;;2.67;;
67979;SDS011;54760;47.490;19.030;2023-04-27T04:01:25;4.15;;;2.20;;
67979;SDS011;54760;47.490;19.030;2023-04-27T04:03:50;3.97;;;2.08;;
67979;SDS011;54760;47.490;19.030;2023-04-27T04:06:16;4.80;;;2.10;;
67979;SDS011;54760;47.490;19.030;2023-04-27T04:08:41;6.15;;;2.10;;
67979;SDS011;54760;47.490;19.030;2023-04-27T04:11:07;5.90;;;2.00;;
67979;SDS011;54760;47.490;19.030;2023-04-27T04:13:32;10.48;;;2.45;;
67979;SDS011;54760;47.490;19.030;2023-04-27T04:18:30;4.68;;;2.15;;
67979;SDS011;54760;47.490;19.030;2023-04-27T04:20:56;4.12;;;2.20;;
67979;SDS011;54760;47.490;19.030;2023-04-27T04:23:22;7.45;;;2.58;;
67979;SDS011;54760;47.490;19.030;2023-04-27T04:25:47;3.75;;;2.05;;
67979;SDS011;54760;47.490;19.030;2023-04-27T04:28:13;6.80;;;2.37;;
67979;SDS011;54760;47.490;19.030;2023-04-27T04:30:38;5.47;;;2.37;;
67979;SDS011;54760;47.490;19.030;2023-04-27T04:33:04;5.82;;;2.20;;
67979;SDS011;54760;47.490;19.030;2023-04-27T04:35:29;5.97;;;2.35;;
67979;SDS011;54760;47.490;19.030;2023-04-27T04:37:57;5.78;;;2.90;;
67979;SDS011;54760;47.490;19.030;2023-04-27T04:40:23;7.37;;;2.40;;
67979;SDS011;54760;47.490;19.030;2023-04-27T04:42:48;5.75;;;2.50;;
67979;SDS011;54760;47.490;19.030;2023-04-27T04:45:14;6.95;;;2.78;;
67979;SDS011;54760;47.490;19.030;2023-04-27T04:47:39;5.15;;;2.42;;
67979;SDS011;54760;47.490;19.030;2023-04-27T04:50:05;11.05;;;3.40;;
67979;SDS011;54760;47.490;19.030;2023-04-27T04:52:32;6.75;;;3.47;;
67979;SDS011;54760;47.490;19.030;2023-04-27T04:54:58;3.83;;;2.37;;
67979;SDS011;54760;47.490;19.030;2023-04-27T04:57:23;6.55;;;2.67;;
67979;SDS011;54760;47.490;19.030;2023-04-27T04:59:49;7.20;;;2.60;;
67979;SDS011;54760;47.490;19.030;2023-04-27T05:02:14;7.45;;;2.42;;
67979;SDS011;54760;47.490;19.030;2023-04-27T05:04:39;5.65;;;2.72;;
67979;SDS011;54760;47.490;19.030;2023-04-27T05:07:05;7.25;;;2.80;;
67979;SDS011;54760;47.490;19.030;2023-04-27T05:09:30;5.20;;;2.37;;
67979;SDS011;54760;47.490;19.030;2023-04-27T05:11:56;3.80;;;2.28;;
67979;SDS011;54760;47.490;19.030;2023-04-27T05:14:21;6.80;;;3.12;;
67979;SDS011;54760;47.490;19.030;2023-04-27T05:16:47;2.90;;;1.92;;
67979;SDS011;54760;47.490;19.030;2023-04-27T05:19:13;8.32;;;2.53;;
67979;SDS011;54760;47.490;19.030;2023-04-27T05:21:45;4.05;;;2.20;;
67979;SDS011;54760;47.490;19.030;2023-04-27T05:24:11;11.05;;;2.62;;
67979;SDS011;54760;47.490;19.030;2023-04-27T05:26:37;6.97;;;2.60;;
67979;SDS011;54760;47.490;19.030;2023-04-27T05:29:02;7.20;;;2.87;;
67979;SDS011;54760;47.490;19.030;2023-04-27T05:31:28;6.35;;;2.33;;
67979;SDS011;54760;47.490;19.030;2023-04-27T05:33:53;8.43;;;2.50;;
67979;SDS011;54760;47.490;19.030;2023-04-27T05:36:19;6.35;;;2.50;;
67979;SDS011;54760;47.490;19.030;2023-04-27T05:38:44;5.40;;;2.50;;
67979;SDS011;54760;47.490;19.030;2023-04-27T05:41:10;6.70;;;2.30;;
67979;SDS011;54760;47.490;19.030;2023-04-27T05:43:36;7.85;;;2.08;;
67979;SDS011;54760;47.490;19.030;2023-04-27T05:46:04;6.10;;;2.45;;
67979;SDS011;54760;47.490;19.030;2023-04-27T05:48:30;5.72;;;2.60;;
67979;SDS011;54760;47.490;19.030;2023-04-27T05:50:59;8.88;;;2.90;;
67979;SDS011;54760;47.490;19.030;2023-04-27T05:53:25;5.62;;;2.85;;
67979;SDS011;54760;47.490;19.030;2023-04-27T05:55:51;7.50;;;3.12;;
67979;SDS011;54760;47.490;19.030;2023-04-27T05:58:16;7.20;;;3.28;;
67979;SDS011;54760;47.490;19.030;2023-04-27T06:00:42;8.43;;;4.40;;
67979;SDS011;54760;47.490;19.030;2023-04-27T06:03:07;7.00;;;3.30;;
67979;SDS011;54760;47.490;19.030;2023-04-27T06:05:33;9.93;;;2.97;;
67979;SDS011;54760;47.490;19.030;2023-04-27T06:07:58;6.65;;;3.15;;
67979;SDS011;54760;47.490;19.030;2023-04-27T06:10:24;5.37;;;2.65;;
67979;SDS011;54760;47.490;19.030;2023-04-27T06:12:49;6.28;;;3.00;;
67979;SDS011;54760;47.490;19.030;2023-04-27T06:15:15;7.03;;;2.95;;
67979;SDS011;54760;47.490;19.030;2023-04-27T06:17:41;4.25;;;2.30;;
67979;SDS011;54760;47.490;19.030;2023-04-27T06:20:08;5.12;;;2.30;;
67979;SDS011;54760;47.490;19.030;2023-04-27T06:22:36;4.28;;;2.50;;
67979;SDS011;54760;47.490;19.030;2023-04-27T06:25:03;6.95;;;2.35;;
67979;SDS011;54760;47.490;19.030;2023-04-27T06:27:32;7.15;;;2.17;;
67979;SDS011;54760;47.490;19.030;2023-04-27T06:29:57;6.30;;;2.47;;
67979;SDS011;54760;47.490;19.030;2023-04-27T06:32:23;7.80;;;2.37;;
67979;SDS011;54760;47.490;19.030;2023-04-27T06:34:49;5.43;;;2.15;;
67979;SDS011;54760;47.490;19.030;2023-04-27T06:37:14;11.57;;;2.95;;
67979;SDS011;54760;47.490;19.030;2023-04-27T06:39:44;5.82;;;2.28;;
67979;SDS011;54760;47.490;19.030;2023-04-27T06:42:10;6.45;;;2.10;;
67979;SDS011;54760;47.490;19.030;2023-04-27T06:44:35;4.43;;;2.08;;
67979;SDS011;54760;47.490;19.030;2023-04-27T06:47:01;7.70;;;2.28;;
67979;SDS011;54760;47.490;19.030;2023-04-27T06:49:27;5.37;;;1.80;;
67979;SDS011;54760;47.490;19.030;2023-04-27T06:51:52;7.35;;;2.10;;
67979;SDS011;54760;47.490;19.030;2023-04-27T06:54:17;7.18;;;2.28;;
67979;SDS011;54760;47.490;19.030;2023-04-27T06:56:43;6.35;;;2.33;;
67979;SDS011;54760;47.490;19.030;2023-04-27T06:59:09;4.62;;;2.20;;
67979;SDS011;54760;47.490;19.030;2023-04-27T07:01:35;4.55;;;1.92;;
67979;SDS011;54760;47.490;19.030;2023-04-27T07:04:01;4.15;;;2.50;;
67979;SDS011;54760;47.490;19.030;2023-04-27T07:06:30;6.82;;;2.30;;
67979;SDS011;54760;47.490;19.030;2023-04-27T07:08:56;4.75;;;1.98;;
67979;SDS011;54760;47.490;19.030;2023-04-27T07:11:22;4.28;;;2.20;;
67979;SDS011;54760;47.490;19.030;2023-04-27T07:13:48;4.45;;;2.28;;
67979;SDS011;54760;47.490;19.030;2023-04-27T07:16:14;5.28;;;2.12;;
67979;SDS011;54760;47.490;19.030;2023-04-27T07:18:39;5.57;;;2.10;;
67979;SDS011;54760;47.490;19.030;2023-04-27T07:21:05;4.25;;;2.22;;
67979;SDS011;54760;47.490;19.030;2023-04-27T07:23:30;7.37;;;2.20;;
67979;SDS011;54760;47.490;19.030;2023-04-27T07:25:56;5.53;;;2.33;;
67979;SDS011;54760;47.490;19.030;2023-04-27T07:28:21;5.57;;;2.05;;
67979;SDS011;54760;47.490;19.030;2023-04-27T07:30:47;6.80;;;2.60;;
67979;SDS011;54760;47.490;19.030;2023-04-27T07:33:12;5.03;;;2.45;;
67979;SDS011;54760;47.490;19.030;2023-04-27T07:35:38;5.40;;;2.58;;
67979;SDS011;54760;47.490;19.030;2023-04-27T07:38:03;4.43;;;2.40;;
67979;SDS011;54760;47.490;19.030;2023-04-27T07:40:29;3.35;;;1.90;;
67979;SDS011;54760;47.490;19.030;2023-04-27T07:42:56;5.70;;;2.30;;
67979;SDS011;54760;47.490;19.030;2023-04-27T07:45:22;6.80;;;2.50;;
67979;SDS011;54760;47.490;19.030;2023-04-27T07:47:55;4.07;;;2.20;;
67979;SDS011;54760;47.490;19.030;2023-04-27T07:50:22;5.90;;;2.47;;
67979;SDS011;54760;47.490;19.030;2023-04-27T07:52:49;4.95;;;2.25;;
67979;SDS011;54760;47.490;19.030;2023-04-27T07:55:15;3.22;;;2.00;;
67979;SDS011;54760;47.490;19.030;2023-04-27T07:57:41;3.30;;;1.80;;
67979;SDS011;54760;47.490;19.030;2023-04-27T08:00:06;9.30;;;2.00;;
67979;SDS011;54760;47.490;19.030;2023-04-27T08:02:34;3.62;;;1.50;;
67979;SDS011;54760;47.490;19.030;2023-04-27T08:04:59;5.20;;;1.60;;
67979;SDS011;54760;47.490;19.030;2023-04-27T08:07:26;7.80;;;2.03;;
67979;SDS011;54760;47.490;19.030;2023-04-27T08:09:52;4.05;;;1.73;;
67979;SDS011;54760;47.490;19.030;2023-04-27T08:12:17;5.80;;;2.25;;
67979;SDS011;54760;47.490;19.030;2023-04-27T08:14:43;6.47;;;1.65;;
67979;SDS011;54760;47.490;19.030;2023-04-27T08:17:09;4.37;;;1.70;;
67979;SDS011;54760;47.490;19.030;2023-04-27T08:19:35;4.55;;;1.50;;
67979;SDS011;54760;47.490;19.030;2023-04-27T08:22:01;3.58;;;1.50;;
67979;SDS011;54760;47.490;19.030;2023-04-27T08:24:26;3.45;;;1.75;;
67979;SDS011;54760;47.490;19.030;2023-04-27T08:26:51;5.35;;;1.70;;
67979;SDS011;54760;47.490;19.030;2023-04-27T08:29:17;3.33;;;1.50;;
67979;SDS011;54760;47.490;19.030;2023-04-27T08:31:42;4.22;;;1.90;;
67979;SDS011;54760;47.490;19.030;2023-04-27T08:34:08;3.42;;;1.50;;
67979;SDS011;54760;47.490;19.030;2023-04-27T08:36:33;5.40;;;1.75;;
67979;SDS011;54760;47.490;19.030;2023-04-27T08:38:59;4.22;;;1.60;;
67979;SDS011;54760;47.490;19.030;2023-04-27T08:41:24;2.15;;;1.40;;
67979;SDS011;54760;47.490;19.030;2023-04-27T08:43:50;3.37;;;1.65;;
67979;SDS011;54760;47.490;19.030;2023-04-27T08:48:45;4.55;;;1.58;;
67979;SDS011;54760;47.490;19.030;2023-04-27T08:51:11;5.22;;;1.50;;
67979;SDS011;54760;47.490;19.030;2023-04-27T08:53:43;4.68;;;2.30;;
67979;SDS011;54760;47.490;19.030;2023-04-27T08:56:14;2.62;;;1.48;;
67979;SDS011;54760;47.490;19.030;2023-04-27T08:58:40;4.00;;;1.67;;
67979;SDS011;54760;47.490;19.030;2023-04-27T09:01:07;4.12;;;1.75;;
67979;SDS011;54760;47.490;19.030;2023-04-27T09:03:33;3.30;;;1.60;;
67979;SDS011;54760;47.490;19.030;2023-04-27T09:06:00;3.75;;;1.80;;
67979;SDS011;54760;47.490;19.030;2023-04-27T09:08:39;2.65;;;1.58;;
67979;SDS011;54760;47.490;19.030;2023-04-27T09:11:08;4.18;;;1.83;;
67979;SDS011;54760;47.490;19.030;2023-04-27T09:13:34;5.40;;;1.80;;
67979;SDS011;54760;47.490;19.030;2023-04-27T09:16:01;3.30;;;1.85;;
67979;SDS011;54760;47.490;19.030;2023-04-27T09:18:27;3.92;;;1.60;;
67979;SDS011;54760;47.490;19.030;2023-04-27T09:20:53;7.22;;;1.67;;
67979;SDS011;54760;47.490;19.030;2023-04-27T09:23:27;5.22;;;1.80;;
67979;SDS011;54760;47.490;19.030;2023-04-27T09:25:57;3.78;;;2.03;;
67979;SDS011;54760;47.490;19.030;2023-04-27T09:28:28;4.18;;;1.60;;
67979;SDS011;54760;47.490;19.030;2023-04-27T09:30:58;5.62;;;1.50;;
67979;SDS011;54760;47.490;19.030;2023-04-27T09:33:26;4.30;;;1.40;;
67979;SDS011;54760;47.490;19.030;2023-04-27T09:35:54;3.22;;;1.65;;
67979;SDS011;54760;47.490;19.030;2023-04-27T09:38:21;5.03;;;1.80;;
67979;SDS011;54760;47.490;19.030;2023-04-27T09:40:48;3.28;;;1.50;;
67979;SDS011;54760;47.490;19.030;2023-04-27T09:43:14;3.83;;;2.00;;
67979;SDS011;54760;47.490;19.030;2023-04-27T09:45:40;2.92;;;1.40;;
67979;SDS011;54760;47.490;19.030;2023-04-27T09:48:06;3.25;;;1.65;;
67979;SDS011;54760;47.490;19.030;2023-04-27T09:50:35;4.97;;;2.15;;
67979;SDS011;54760;47.490;19.030;2023-04-27T09:53:04;5.62;;;1.77;;
67979;SDS011;54760;47.490;19.030;2023-04-27T09:55:36;5.20;;;1.83;;
67979;SDS011;54760;47.490;19.030;2023-04-27T10:03:15;3.87;;;1.80;;
67979;SDS011;54760;47.490;19.030;2023-04-27T10:08:51;2.45;;;1.45;;
67979;SDS011;54760;47.490;19.030;2023-04-27T10:11:17;3.30;;;1.55;;
67979;SDS011;54760;47.490;19.030;2023-04-27T10:13:50;3.35;;;1.60;;
67979;SDS011;54760;47.490;19.030;2023-04-27T10:16:17;5.95;;;1.95;;
67979;SDS011;54760;47.490;19.030;2023-04-27T10:18:50;4.75;;;1.90;;
67979;SDS011;54760;47.490;19.030;2023-04-27T10:21:18;4.55;;;1.80;;
67979;SDS011;54760;47.490;19.030;2023-04-27T10:23:47;7.22;;;1.80;;
67979;SDS011;54760;47.490;19.030;2023-04-27T10:26:25;2.60;;;1.80;;
67979;SDS011;54760;47.490;19.030;2023-04-27T10:29:03;4.28;;;1.60;;
67979;SDS011;54760;47.490;19.030;2023-04-27T10:31:31;9.00;;;2.20;;
67979;SDS011;54760;47.490;19.030;2023-04-27T10:34:10;3.25;;;1.60;;
67979;SDS011;54760;47.490;19.030;2023-04-27T10:36:40;3.30;;;1.67;;
67979;SDS011;54760;47.490;19.030;2023-04-27T10:42:02;4.43;;;1.98;;
67979;SDS011;54760;47.490;19.030;2023-04-27T10:44:29;4.28;;;1.75;;
67979;SDS011;54760;47.490;19.030;2023-04-27T10:46:56;5.12;;;1.90;;
67979;SDS011;54760;47.490;19.030;2023-04-27T10:49:28;6.78;;;1.40;;
67979;SDS011;54760;47.490;19.030;2023-04-27T10:51:58;5.03;;;1.70;;
67979;SDS011;54760;47.490;19.030;2023-04-27T10:54:27;3.20;;;1.45;;
67979;SDS011;54760;47.490;19.030;2023-04-27T10:56:53;3.28;;;1.58;;
67979;SDS011;54760;47.490;19.030;2023-04-27T10:59:26;3.55;;;1.55;;
67979;SDS011;54760;47.490;19.030;2023-04-27T11:01:51;3.87;;;1.60;;
67979;SDS011;54760;47.490;19.030;2023-04-27T11:04:17;2.42;;;1.67;;
67979;SDS011;54760;47.490;19.030;2023-04-27T11:06:43;3.60;;;1.90;;
67979;SDS011;54760;47.490;19.030;2023-04-27T11:09:12;3.05;;;1.60;;
67979;SDS011;54760;47.490;19.030;2023-04-27T11:11:42;4.95;;;1.65;;
67979;SDS011;54760;47.490;19.030;2023-04-27T11:14:12;4.55;;;1.52;;
67979;SDS011;54760;47.490;19.030;2023-04-27T11:16:44;3.80;;;2.17;;
67979;SDS011;54760;47.490;19.030;2023-04-27T11:19:10;5.07;;;1.95;;
67979;SDS011;54760;47.490;19.030;2023-04-27T11:21:36;3.85;;;1.90;;
67979;SDS011;54760;47.490;19.030;2023-04-27T11:24:05;5.30;;;1.83;;
67979;SDS011;54760;47.490;19.030;2023-04-27T11:26:32;4.32;;;2.10;;
67979;SDS011;54760;47.490;19.030;2023-04-27T11:28:58;5.62;;;1.87;;
67979;SDS011;54760;47.490;19.030;2023-04-27T11:31:26;4.32;;;1.70;;
67979;SDS011;54760;47.490;19.030;2023-04-27T11:34:02;2.22;;;1.50;;
67979;SDS011;54760;47.490;19.030;2023-04-27T11:36:27;5.75;;;1.95;;
67979;SDS011;54760;47.490;19.030;2023-04-27T11:38:56;6.07;;;1.87;;
67979;SDS011;54760;47.490;19.030;2023-04-27T11:41:22;3.22;;;1.73;;
67979;SDS011;54760;47.490;19.030;2023-04-27T11:44:02;4.20;;;1.60;;
67979;SDS011;54760;47.490;19.030;2023-04-27T11:46:37;4.80;;;1.92;;
67979;SDS011;54760;47.490;19.030;2023-04-27T11:49:05;3.90;;;2.22;;
67979;SDS011;54760;47.490;19.030;2023-04-27T11:51:32;5.20;;;1.90;;
67979;SDS011;54760;47.490;19.030;2023-04-27T11:54:00;5.72;;;1.92;;
67979;SDS011;54760;47.490;19.030;2023-04-27T11:56:36;6.05;;;1.87;;
67979;SDS011;54760;47.490;19.030;2023-04-27T11:59:04;5.62;;;1.83;;
67979;SDS011;54760;47.490;19.030;2023-04-27T12:01:30;5.50;;;1.80;;
67979;SDS011;54760;47.490;19.030;2023-04-27T12:03:57;5.25;;;2.22;;
67979;SDS011;54760;47.490;19.030;2023-04-27T12:06:24;3.97;;;2.00;;
67979;SDS011;54760;47.490;19.030;2023-04-27T12:08:50;4.85;;;1.80;;
67979;SDS011;54760;47.490;19.030;2023-04-27T12:11:16;6.90;;;1.85;;
67979;SDS011;54760;47.490;19.030;2023-04-27T12:13:42;7.32;;;1.95;;
67979;SDS011;54760;47.490;19.030;2023-04-27T12:16:07;3.33;;;1.87;;
67979;SDS011;54760;47.490;19.030;2023-04-27T12:18:33;4.43;;;1.70;;
67979;SDS011;54760;47.490;19.030;2023-04-27T12:20:58;4.57;;;2.03;;
67979;SDS011;54760;47.490;19.030;2023-04-27T12:23:24;8.20;;;2.20;;
67979;SDS011;54760;47.490;19.030;2023-04-27T12:25:49;3.95;;;1.40;;
67979;SDS011;54760;47.490;19.030;2023-04-27T12:28:15;4.50;;;1.80;;
67979;SDS011;54760;47.490;19.030;2023-04-27T12:30:43;4.93;;;1.98;;
67979;SDS011;54760;47.490;19.030;2023-04-27T12:33:09;4.80;;;2.00;;
67979;SDS011;54760;47.490;19.030;2023-04-27T12:35:35;6.57;;;2.30;;
67979;SDS011;54760;47.490;19.030;2023-04-27T12:38:01;3.47;;;1.95;;
67979;SDS011;54760;47.490;19.030;2023-04-27T12:40:27;4.47;;;1.70;;
67979;SDS011;54760;47.490;19.030;2023-04-27T12:42:53;3.72;;;1.48;;
67979;SDS011;54760;47.490;19.030;2023-04-27T12:45:18;4.15;;;1.87;;
67979;SDS011;54760;47.490;19.030;2023-04-27T12:47:44;5.97;;;2.20;;
67979;SDS011;54760;47.490;19.030;2023-04-27T12:50:10;5.07;;;1.77;;
67979;SDS011;54760;47.490;19.030;2023-04-27T12:52:35;3.85;;;2.00;;
67979;SDS011;54760;47.490;19.030;2023-04-27T12:55:01;5.25;;;2.03;;
67979;SDS011;54760;47.490;19.030;2023-04-27T12:57:26;5.10;;;2.22;;
67979;SDS011;54760;47.490;19.030;2023-04-27T12:59:52;4.68;;;1.73;;
67979;SDS011;54760;47.490;19.030;2023-04-27T13:02:17;3.58;;;1.73;;
67979;SDS011;54760;47.490;19.030;2023-04-27T13:04:43;4.82;;;1.67;;
67979;SDS011;54760;47.490;19.030;2023-04-27T13:07:08;4.00;;;1.70;;
67979;SDS011;54760;47.490;19.030;2023-04-27T13:09:33;7.15;;;2.50;;
67979;SDS011;54760;47.490;19.030;2023-04-27T13:12:00;4.25;;;1.80;;
67979;SDS011;54760;47.490;19.030;2023-04-27T13:14:25;2.75;;;1.60;;
67979;SDS011;54760;47.490;19.030;2023-04-27T13:16:52;3.70;;;1.80;;
67979;SDS011;54760;47.490;19.030;2023-04-27T13:19:18;6.62;;;1.83;;
67979;SDS011;54760;47.490;19.030;2023-04-27T13:21:43;6.05;;;1.52;;
67979;SDS011;54760;47.490;19.030;2023-04-27T13:24:09;6.87;;;2.60;;
67979;SDS011;54760;47.490;19.030;2023-04-27T13:26:34;5.20;;;1.90;;
67979;SDS011;54760;47.490;19.030;2023-04-27T13:29:00;5.30;;;2.62;;
67979;SDS011;54760;47.490;19.030;2023-04-27T13:31:28;3.67;;;1.87;;
67979;SDS011;54760;47.490;19.030;2023-04-27T13:33:55;5.28;;;1.92;;
67979;SDS011;54760;47.490;19.030;2023-04-27T13:36:21;7.28;;;2.05;;
67979;SDS011;54760;47.490;19.030;2023-04-27T13:38:46;3.70;;;1.48;;
67979;SDS011;54760;47.490;19.030;2023-04-27T13:41:12;5.65;;;1.80;;
67979;SDS011;54760;47.490;19.030;2023-04-27T13:43:37;3.90;;;2.08;;
67979;SDS011;54760;47.490;19.030;2023-04-27T13:46:03;5.80;;;1.92;;
67979;SDS011;54760;47.490;19.030;2023-04-27T13:48:29;3.60;;;1.48;;
67979;SDS011;54760;47.490;19.030;2023-04-27T13:50:55;4.90;;;2.00;;
67979;SDS011;54760;47.490;19.030;2023-04-27T13:53:20;4.57;;;1.92;;
67979;SDS011;54760;47.490;19.030;2023-04-27T13:55:49;4.87;;;2.40;;
67979;SDS011;54760;47.490;19.030;2023-04-27T13:58:15;6.82;;;1.98;;
67979;SDS011;54760;47.490;19.030;2023-04-27T14:00:40;3.70;;;1.70;;
67979;SDS011;54760;47.490;19.030;2023-04-27T14:03:06;4.87;;;1.60;;
67979;SDS011;54760;47.490;19.030;2023-04-27T14:05:32;6.90;;;1.85;;
67979;SDS011;54760;47.490;19.030;2023-04-27T14:07:58;8.68;;;1.80;;
67979;SDS011;54760;47.490;19.030;2023-04-27T14:10:24;3.58;;;1.70;;
67979;SDS011;54760;47.490;19.030;2023-04-27T14:12:49;4.35;;;1.60;;
67979;SDS011;54760;47.490;19.030;2023-04-27T14:15:15;6.05;;;1.50;;
67979;SDS011;54760;47.490;19.030;2023-04-27T14:17:40;5.60;;;1.83;;
67979;SDS011;54760;47.490;19.030;2023-04-27T14:20:06;3.95;;;1.50;;
67979;SDS011;54760;47.490;19.030;2023-04-27T14:22:35;5.10;;;1.60;;
67979;SDS011;54760;47.490;19.030;2023-04-27T14:25:01;2.92;;;1.60;;
67979;SDS011;54760;47.490;19.030;2023-04-27T14:27:26;2.97;;;1.80;;
67979;SDS011;54760;47.490;19.030;2023-04-27T14:29:52;3.62;;;1.80;;
67979;SDS011;54760;47.490;19.030;2023-04-27T14:32:17;6.05;;;1.60;;
67979;SDS011;54760;47.490;19.030;2023-04-27T14:34:43;3.85;;;1.70;;
67979;SDS011;54760;47.490;19.030;2023-04-27T14:37:08;4.25;;;1.50;;
67979;SDS011;54760;47.490;19.030;2023-04-27T14:39:34;2.67;;;1.48;;
67979;SDS011;54760;47.490;19.030;2023-04-27T14:42:00;2.70;;;1.70;;
67979;SDS011;54760;47.490;19.030;2023-04-27T14:44:26;4.70;;;2.30;;